createdAt,value
2022-11-24T06:35:31.601Z,100.00
2022-11-24T06:47:15.351Z,100.00
2022-11-24T06:49:42.505Z,100.00
2022-11-24T06:52:09.953Z,100.00
2022-11-24T06:54:37.200Z,100.00
2022-11-24T06:57:04.586Z,100.00
2022-11-24T06:59:31.731Z,100.00
2022-11-24T07:01:58.838Z,100.00
2022-11-24T07:04:25.982Z,100.00
2022-11-24T07:06:53.185Z,100.00
2022-11-24T07:09:20.289Z,100.00
2022-11-24T07:11:47.426Z,100.00
2022-11-24T07:14:14.723Z,100.00
2022-11-24T07:16:42.270Z,100.00
2022-11-24T07:19:10.272Z,100.00
2022-11-24T07:21:37.437Z,100.00
2022-11-24T07:24:04.980Z,100.00
2022-11-24T07:26:37.095Z,100.00
2022-11-24T07:29:05.277Z,100.00
2022-11-24T07:31:32.448Z,100.00
2022-11-24T07:33:59.777Z,100.00
2022-11-24T07:36:26.938Z,100.00
2022-11-24T07:38:54.110Z,100.00
2022-11-24T07:41:21.471Z,100.00
2022-11-24T07:43:49.328Z,100.00
2022-11-24T07:46:18.851Z,100.00
2022-11-24T07:48:46.748Z,100.00
2022-11-24T07:51:13.970Z,100.00
2022-11-24T07:53:41.289Z,100.00
2022-11-24T07:56:09.263Z,100.00
2022-11-24T07:58:37.491Z,100.00
2022-11-24T08:01:18.207Z,100.00
2022-11-24T08:03:46.394Z,100.00
2022-11-24T08:06:38.172Z,100.00
2022-11-24T08:09:02.410Z,100.00
2022-11-24T08:11:31.453Z,100.00
2022-11-24T08:13:58.761Z,100.00
2022-11-24T08:16:26.049Z,100.00
2022-11-24T08:18:55.048Z,100.00
2022-11-24T08:21:25.783Z,100.00
2022-11-24T08:23:56.673Z,100.00
2022-11-24T08:26:24.886Z,100.00
2022-11-24T08:28:57.642Z,100.00
2022-11-24T08:31:27.170Z,100.00
2022-11-24T08:33:56.012Z,100.00
2022-11-24T08:36:23.222Z,100.00
2022-11-24T08:38:54.710Z,100.00
2022-11-24T08:41:22.139Z,100.00
2022-11-24T08:43:49.303Z,100.00
2022-11-24T08:46:17.392Z,100.00
2022-11-24T08:48:49.128Z,100.00
2022-11-24T08:51:18.867Z,100.00
2022-11-24T08:53:46.225Z,100.00
2022-11-24T08:56:13.517Z,100.00
2022-11-24T08:58:41.731Z,100.00
2022-11-24T09:01:14.091Z,100.00
2022-11-24T09:03:49.956Z,100.00
2022-11-24T09:06:25.102Z,100.00
2022-11-24T09:08:54.101Z,100.00
2022-11-24T09:11:21.449Z,100.00
2022-11-24T09:13:48.683Z,100.00
2022-11-24T09:16:18.733Z,100.00
2022-11-24T09:18:46.510Z,100.00
2022-11-24T09:21:15.951Z,100.00
2022-11-24T09:23:44.019Z,100.00
2022-11-24T09:26:16.844Z,100.00
2022-11-24T09:28:44.138Z,100.00
2022-11-24T09:31:14.114Z,100.00
2022-11-24T09:33:42.168Z,100.00
2022-11-24T09:36:09.570Z,100.00
2022-11-24T09:38:36.923Z,100.00
2022-11-24T09:41:22.182Z,100.00
2022-11-24T09:44:14.329Z,100.00
2022-11-24T09:46:50.308Z,100.00
2022-11-24T09:49:24.663Z,100.00
2022-11-24T09:51:52.467Z,100.00
2022-11-24T09:54:26.367Z,100.00
2022-11-24T09:56:53.588Z,100.00
2022-11-24T09:59:24.884Z,100.00
2022-11-24T10:01:52.680Z,100.00
2022-11-24T10:04:22.896Z,100.00
2022-11-24T10:07:12.007Z,100.00
2022-11-24T10:10:10.713Z,100.00
2022-11-24T10:12:52.690Z,100.00
2022-11-24T10:15:24.494Z,100.00
2022-11-24T10:18:17.061Z,100.00
2022-11-24T10:21:06.324Z,100.00
2022-11-24T10:24:00.597Z,100.00
2022-11-24T10:26:41.657Z,100.00
2022-11-24T10:29:36.855Z,99.18
2022-11-24T10:32:06.846Z,99.60
2022-11-24T10:35:13.444Z,99.55
2022-11-24T10:37:50.400Z,99.00
2022-11-24T10:40:56.507Z,98.75
2022-11-24T10:43:13.106Z,98.41
2022-11-24T10:45:40.595Z,99.15
2022-11-24T10:48:21.745Z,98.28
2022-11-24T10:50:48.899Z,98.40
2022-11-24T10:53:35.585Z,98.71
2022-11-24T10:56:05.018Z,98.39
2022-11-24T10:58:38.490Z,98.57
2022-11-24T11:01:14.883Z,98.04
2022-11-24T11:03:48.905Z,98.13
2022-11-24T11:06:23.000Z,97.67
2022-11-24T11:08:50.343Z,97.50
2022-11-24T11:11:39.112Z,96.84
2022-11-24T11:14:08.817Z,96.14
2022-11-24T11:16:35.989Z,96.16
2022-11-24T11:19:20.166Z,95.98
2022-11-24T11:22:01.072Z,95.56
2022-11-24T11:24:29.488Z,95.01
2022-11-24T11:27:02.534Z,94.72
2022-11-24T11:35:12.590Z,95.20
2022-11-24T11:37:40.869Z,94.86
2022-11-24T11:40:14.755Z,94.81
2022-11-24T11:43:01.913Z,94.68
2022-11-24T11:45:37.491Z,94.47
2022-11-24T11:48:10.109Z,94.25
2022-11-24T11:51:21.057Z,94.11
2022-11-24T11:53:47.071Z,94.06
2022-11-24T11:56:33.597Z,93.82
2022-11-24T11:59:25.328Z,94.03
2022-11-24T12:02:20.880Z,93.93
2022-11-24T12:04:59.630Z,93.16
2022-11-24T12:07:48.932Z,92.02
2022-11-24T12:10:41.748Z,90.42
2022-11-24T12:13:33.089Z,88.41
2022-11-24T12:16:31.008Z,85.96
2022-11-24T12:19:00.969Z,83.64
2022-11-24T12:21:43.060Z,82.68
2022-11-24T12:24:18.111Z,81.75
2022-11-24T12:26:50.484Z,82.26
2022-11-24T12:29:42.124Z,80.07
2022-11-24T13:15:43.555Z,88.53
2022-11-24T13:27:15.788Z,89.44
2022-11-24T13:29:44.023Z,89.93
2022-11-24T13:32:20.908Z,90.13
2022-11-24T13:34:54.810Z,90.39
2022-11-24T13:37:31.983Z,91.00
2022-11-24T13:40:23.124Z,90.95
2022-11-24T13:42:56.278Z,90.90
2022-11-24T13:45:41.705Z,90.51
2022-11-24T13:48:21.753Z,90.57
2022-11-24T13:50:54.658Z,90.40
2022-11-24T13:53:40.250Z,89.84
2022-11-24T13:56:13.082Z,90.13
2022-11-24T13:59:16.530Z,90.58
2022-11-24T14:01:46.715Z,90.38
2022-11-24T14:07:12.192Z,89.89
2022-11-24T14:09:45.789Z,90.48
2022-11-24T14:12:22.946Z,90.18
2022-11-24T14:14:51.696Z,89.61
2022-11-24T14:17:23.782Z,89.44
2022-11-24T14:19:53.433Z,89.53
2022-11-24T14:22:35.076Z,90.02
2022-11-24T14:25:02.809Z,89.97
2022-11-24T15:54:32.841Z,92.68
2022-11-24T18:58:19.089Z,96.79
2022-11-24T19:00:46.290Z,97.12
2022-11-24T19:03:13.608Z,97.35
2022-11-24T19:05:41.199Z,97.44
2022-11-24T19:08:08.386Z,98.17
2022-11-24T19:10:39.419Z,97.83
2022-11-24T19:13:06.631Z,97.82
2022-11-24T19:15:35.017Z,97.74
2022-11-24T19:18:02.404Z,97.36
2022-11-24T19:20:29.724Z,97.62
2022-11-24T19:27:53.620Z,97.34
2022-11-24T19:44:25.113Z,96.56
2022-11-24T19:55:42.849Z,96.85
2022-11-24T19:58:37.027Z,97.41
2022-11-24T20:02:02.634Z,97.28
2022-11-24T20:04:30.335Z,97.22
2022-11-24T20:08:00.810Z,97.12
2022-11-24T20:10:31.480Z,96.89
2022-11-24T20:14:27.557Z,97.25
2022-11-24T20:17:20.357Z,97.15
2022-11-24T20:19:47.579Z,97.31
2022-11-24T20:31:08.137Z,97.43
2022-11-24T20:50:27.272Z,96.76
2022-11-24T21:01:48.352Z,97.18
2022-11-24T21:09:30.642Z,98.06
2022-11-24T22:25:32.258Z,98.59
2022-11-24T23:04:24.943Z,98.78
2022-11-24T23:43:05.109Z,98.69
